createdAt,value
2019-01-31T00:03:01.171Z,98441.62
2019-01-31T00:08:27.492Z,98439.89
2019-01-31T00:13:39.945Z,98433.54
2019-01-31T00:18:58.400Z,98428.55
2019-01-31T00:24:09.704Z,98427.02
2019-01-31T00:29:14.632Z,98426.09
2019-01-31T00:34:22.539Z,98432.89
2019-01-31T00:39:41.418Z,98436.17
2019-01-31T00:45:05.392Z,98434.95
2019-01-31T00:50:32.990Z,98435.08
2019-01-31T00:55:33.281Z,98432.31
2019-01-31T01:00:49.229Z,98436.38
2019-01-31T01:06:09.279Z,98440.52
2019-01-31T01:11:36.952Z,98441.73
2019-01-31T01:16:36.655Z,98446.09
2019-01-31T01:21:42.147Z,98439.63
2019-01-31T01:26:47.653Z,98455.28
2019-01-31T01:31:50.020Z,98450.30
2019-01-31T01:37:01.942Z,98449.70
2019-01-31T01:42:10.535Z,98460.64
2019-01-31T01:47:16.114Z,98465.12
2019-01-31T01:52:43.098Z,98467.42
2019-01-31T01:58:00.807Z,98470.99
2019-01-31T02:03:17.407Z,98472.48
2019-01-31T02:08:26.399Z,98474.37
2019-01-31T02:13:31.864Z,98473.92
2019-01-31T02:18:40.092Z,98474.80
2019-01-31T02:23:46.384Z,98479.09
2019-01-31T02:29:16.437Z,98472.23
2019-01-31T02:34:37.437Z,98481.20
2019-01-31T02:40:02.908Z,98480.32
2019-01-31T02:45:17.209Z,98487.95
2019-01-31T02:50:19.955Z,98495.51
2019-01-31T02:55:39.058Z,98485.81
2019-01-31T03:01:05.865Z,98486.17
2019-01-31T03:06:11.336Z,98495.88
2019-01-31T03:11:17.156Z,98491.48
2019-01-31T03:16:22.426Z,98497.22
2019-01-31T03:21:34.318Z,98497.30
2019-01-31T03:26:43.271Z,98501.30
2019-01-31T03:32:01.148Z,98495.27
2019-01-31T03:37:23.834Z,98503.96
2019-01-31T03:42:55.615Z,98508.70
2019-01-31T03:48:13.433Z,98507.56
2019-01-31T03:53:18.936Z,98507.48
2019-01-31T03:58:21.885Z,98509.75
2019-01-31T04:03:33.703Z,98507.56
2019-01-31T04:08:29.553Z,98511.51
2019-01-31T04:13:25.438Z,98510.27
2019-01-31T04:18:21.337Z,98512.49
2019-01-31T04:23:17.213Z,98516.46
2019-01-31T04:28:13.130Z,98523.75
2019-01-31T04:33:09.030Z,98523.45
2019-01-31T04:38:05.017Z,98532.13
2019-01-31T04:43:00.900Z,98537.22
2019-01-31T04:47:56.836Z,98539.36
2019-01-31T04:52:52.698Z,98541.03
2019-01-31T04:57:48.627Z,98539.30
2019-01-31T05:02:44.607Z,98537.87
2019-01-31T05:07:40.500Z,98543.17
2019-01-31T05:12:36.509Z,98542.05
2019-01-31T05:17:32.405Z,98545.89
2019-01-31T05:22:28.321Z,98545.20
2019-01-31T05:27:24.203Z,98538.95
2019-01-31T05:32:20.085Z,98540.15
2019-01-31T05:37:16.072Z,98536.31
2019-01-31T05:42:11.956Z,98540.80
2019-01-31T05:47:07.848Z,98540.07
2019-01-31T05:52:03.758Z,98548.45
2019-01-31T05:56:59.629Z,98550.78
2019-01-31T06:01:55.519Z,98558.94
2019-01-31T06:06:51.378Z,98559.98
2019-01-31T06:11:47.286Z,98557.23
2019-01-31T06:16:43.185Z,98564.56
2019-01-31T06:21:39.062Z,98560.95
2019-01-31T06:26:36.135Z,98571.88
2019-01-31T06:31:32.091Z,98578.70
2019-01-31T06:36:27.977Z,98578.41
2019-01-31T06:41:23.899Z,98582.35
2019-01-31T06:46:19.880Z,98590.39
2019-01-31T06:51:15.768Z,98592.91
2019-01-31T06:56:11.678Z,98594.14
2019-01-31T07:01:07.667Z,98591.73
2019-01-31T07:06:03.649Z,98601.27
2019-01-31T07:10:59.559Z,98608.37
2019-01-31T07:15:55.456Z,98606.11
2019-01-31T07:20:51.346Z,98612.52
2019-01-31T07:25:47.229Z,98610.70
2019-01-31T07:30:43.213Z,98613.09
2019-01-31T07:35:39.096Z,98617.75
2019-01-31T07:40:34.989Z,98619.20
2019-01-31T07:45:31.275Z,98624.66
2019-01-31T07:50:27.267Z,98623.48
2019-01-31T07:55:23.300Z,98624.03
2019-01-31T08:00:21.301Z,98624.69
2019-01-31T08:05:18.994Z,98623.10
2019-01-31T08:10:20.823Z,98622.50
2019-01-31T08:15:18.121Z,98636.45
2019-01-31T08:20:18.565Z,98644.98
2019-01-31T08:25:22.109Z,98646.64
2019-01-31T08:30:42.522Z,98647.83
2019-01-31T08:35:38.425Z,98651.16
2019-01-31T08:40:34.315Z,98658.61
2019-01-31T08:45:30.209Z,98661.87
2019-01-31T08:50:27.961Z,98666.83
2019-01-31T08:55:24.308Z,98665.97
2019-01-31T09:00:28.685Z,98669.19
2019-01-31T09:05:24.541Z,98670.47
2019-01-31T09:10:29.023Z,98675.11
2019-01-31T09:15:25.319Z,98671.14
2019-01-31T09:20:25.019Z,98669.49
2019-01-31T09:25:24.729Z,98683.05
2019-01-31T09:30:53.122Z,98679.70
2019-01-31T09:35:58.830Z,98680.53
2019-01-31T09:41:04.397Z,98686.69
2019-01-31T09:46:04.156Z,98681.76
2019-01-31T09:51:17.417Z,98684.88
2019-01-31T09:56:54.146Z,98692.05
2019-01-31T10:02:28.780Z,98700.47
2019-01-31T10:07:46.860Z,98703.25
2019-01-31T10:13:09.848Z,98708.31
2019-01-31T10:18:42.630Z,98724.07
2019-01-31T10:23:56.815Z,98717.91
2019-01-31T10:29:22.652Z,98716.77
2019-01-31T10:34:37.369Z,98714.66
2019-01-31T10:39:39.935Z,98703.44
2019-01-31T10:45:13.550Z,98697.78
2019-01-31T10:50:30.870Z,98695.69
2019-01-31T10:55:53.488Z,98692.27
2019-01-31T11:01:05.213Z,98682.33
2019-01-31T11:06:20.104Z,98677.53
2019-01-31T11:11:41.004Z,98661.97
2019-01-31T11:17:04.740Z,98662.48
2019-01-31T11:22:07.252Z,98661.08
2019-01-31T11:27:10.216Z,98662.58
2019-01-31T11:32:31.444Z,98650.27
2019-01-31T11:37:31.151Z,98640.66
2019-01-31T11:42:39.964Z,98630.95
2019-01-31T11:47:51.708Z,98616.06
2019-01-31T11:53:06.154Z,98610.08
2019-01-31T11:58:41.872Z,98605.05
2019-01-31T12:03:37.769Z,98595.75
2019-01-31T12:08:33.834Z,98593.56
2019-01-31T12:13:29.805Z,98592.66
2019-01-31T12:18:25.831Z,98576.44
2019-01-31T12:23:22.764Z,98580.66
2019-01-31T12:28:25.519Z,98572.88
2019-01-31T12:33:24.007Z,98555.07
2019-01-31T12:38:23.943Z,98555.20
2019-01-31T12:43:35.044Z,98547.52
2019-01-31T12:48:27.144Z,98541.41
2019-01-31T12:53:25.981Z,98542.73
2019-01-31T12:58:33.797Z,98531.17
2019-01-31T13:03:32.054Z,98525.66
2019-01-31T13:08:36.228Z,98523.78
2019-01-31T13:13:45.957Z,98519.75
2019-01-31T13:18:35.412Z,98515.81
2019-01-31T13:23:34.556Z,98510.67
2019-01-31T13:28:35.843Z,98508.48
2019-01-31T13:33:34.364Z,98499.52
2019-01-31T13:38:34.902Z,98496.46
2019-01-31T13:43:36.211Z,98500.23
2019-01-31T13:48:38.745Z,98497.30
2019-01-31T13:53:36.340Z,98495.83
2019-01-31T13:58:34.582Z,98500.27
2019-01-31T14:03:36.350Z,98487.89
2019-01-31T14:08:34.230Z,98500.98
2019-01-31T14:13:32.579Z,98506.70
2019-01-31T14:18:30.373Z,98513.37
2019-01-31T14:28:50.652Z,98500.27
2019-01-31T14:33:47.778Z,98498.91
2019-01-31T14:38:45.466Z,98510.50
2019-01-31T14:49:02.541Z,98505.09
2019-01-31T14:54:02.909Z,98506.91
2019-01-31T14:59:02.292Z,98507.89
2019-01-31T15:04:02.199Z,98514.09
2019-01-31T15:08:59.924Z,98518.47
2019-01-31T15:13:59.172Z,98515.48
2019-01-31T15:18:58.352Z,98516.00
2019-01-31T15:23:59.663Z,98512.20
2019-01-31T15:29:05.804Z,98522.80
2019-01-31T15:34:09.274Z,98509.70
2019-01-31T15:39:08.076Z,98508.29
2019-01-31T15:44:10.784Z,98507.61
2019-01-31T15:49:14.411Z,98508.50
2019-01-31T15:54:14.953Z,98510.08
2019-01-31T15:59:11.759Z,98509.48
2019-01-31T16:04:13.131Z,98511.89
2019-01-31T16:09:09.895Z,98507.77
2019-01-31T16:14:09.419Z,98500.95
2019-01-31T16:19:11.909Z,98501.73
2019-01-31T16:24:11.351Z,98503.27
2019-01-31T16:29:13.615Z,98499.91
2019-01-31T16:34:11.916Z,98498.27
2019-01-31T16:39:15.075Z,98498.69
2019-01-31T16:44:18.408Z,98494.88
2019-01-31T16:49:15.821Z,98492.37
2019-01-31T16:54:13.158Z,98490.06
2019-01-31T16:59:09.179Z,98493.34
2019-01-31T17:04:05.259Z,98500.69
2019-01-31T17:09:10.244Z,98495.28
2019-01-31T17:14:11.190Z,98487.98
2019-01-31T17:19:13.311Z,98498.83
2019-01-31T17:24:11.433Z,98495.64
2019-01-31T17:29:07.998Z,98492.38
2019-01-31T17:34:03.932Z,98487.59
2019-01-31T17:39:00.746Z,98488.89
2019-01-31T17:43:57.797Z,98484.84
2019-01-31T17:48:56.174Z,98477.88
2019-01-31T17:53:54.342Z,98481.66
2019-01-31T17:58:50.332Z,98479.34
2019-01-31T18:03:46.279Z,98468.06
2019-01-31T18:08:42.228Z,98475.48
2019-01-31T18:13:38.248Z,98464.66
2019-01-31T18:18:34.140Z,98463.05
2019-01-31T18:23:31.863Z,98455.42
2019-01-31T18:28:27.881Z,98447.25
2019-01-31T18:33:23.778Z,98444.56
2019-01-31T18:38:19.739Z,98448.70
2019-01-31T18:43:15.848Z,98446.28
2019-01-31T18:48:11.740Z,98444.70
2019-01-31T18:53:07.829Z,98448.80
2019-01-31T18:58:04.804Z,98438.82
2019-01-31T19:03:00.800Z,98433.06
2019-01-31T19:07:56.899Z,98436.17
2019-01-31T19:12:52.924Z,98436.88
2019-01-31T19:17:48.985Z,98432.39
2019-01-31T19:22:45.140Z,98437.86
2019-01-31T19:27:43.066Z,98437.30
2019-01-31T19:32:39.349Z,98437.49
2019-01-31T19:37:40.422Z,98430.92
2019-01-31T19:42:38.274Z,98426.50
2019-01-31T19:47:35.225Z,98433.19
2019-01-31T19:52:31.490Z,98425.13
2019-01-31T19:57:27.826Z,98415.03
2019-01-31T20:02:24.011Z,98412.55
2019-01-31T20:07:19.885Z,98408.97
2019-01-31T20:12:15.906Z,98409.45
2019-01-31T20:17:11.808Z,98400.89
2019-01-31T20:22:07.954Z,98399.28
2019-01-31T20:27:03.948Z,98400.75
2019-01-31T20:32:00.519Z,98406.86
2019-01-31T20:36:56.418Z,98400.97
2019-01-31T20:41:54.296Z,98395.48
2019-01-31T20:46:50.073Z,98391.11
2019-01-31T20:51:45.977Z,98386.03
2019-01-31T20:56:41.978Z,98383.72
2019-01-31T21:01:38.661Z,98376.52
2019-01-31T21:06:41.414Z,98363.59
2019-01-31T21:11:32.577Z,98359.59
2019-01-31T21:16:28.605Z,98349.14
2019-01-31T21:21:24.464Z,98340.27
2019-01-31T21:26:20.480Z,98335.08
2019-01-31T21:31:16.376Z,98326.41
2019-01-31T21:36:12.262Z,98319.01
2019-01-31T21:41:08.201Z,98313.27
2019-01-31T21:46:04.330Z,98302.67
2019-01-31T21:51:04.087Z,98299.81
2019-01-31T21:56:02.144Z,98293.41
2019-01-31T22:01:14.969Z,98286.83
2019-01-31T22:06:22.608Z,98291.95
2019-01-31T22:11:24.530Z,98288.58
2019-01-31T22:16:25.638Z,98279.32
2019-01-31T22:21:29.199Z,98281.34
2019-01-31T22:26:32.080Z,98282.11
2019-01-31T22:31:33.604Z,98269.81
2019-01-31T22:36:35.604Z,98275.41
2019-01-31T22:41:56.770Z,98283.17
2019-01-31T22:46:59.236Z,98274.17
2019-01-31T22:51:55.221Z,98279.39
2019-01-31T22:56:51.115Z,98267.98
2019-01-31T23:01:51.257Z,98258.46
2019-01-31T23:06:47.247Z,98255.20
2019-01-31T23:11:43.261Z,98242.58
2019-01-31T23:16:39.766Z,98230.28
2019-01-31T23:21:35.747Z,98226.91
2019-01-31T23:26:31.743Z,98227.53
2019-01-31T23:31:27.625Z,98211.06
2019-01-31T23:36:23.612Z,98212.39
2019-01-31T23:41:19.600Z,98203.64
2019-01-31T23:46:15.587Z,98199.28
2019-01-31T23:51:11.481Z,98191.48
2019-01-31T23:56:07.368Z,98196.27
